Portada
METAR-TAF:

METAR-TAF

Aeroports :

Aeroport Internacional de Nador

Nador, Marroc

latitud: 34-59-20N, longitud: 003-01-42W, altitud: 175 m

Observació

L'informe es va fer fa 1 hora i 4 minuts, a les 09:00 UTC
Vent 2 kt amb direcció variable
Temperatura 25°C
Humitat 69%
Pressió 1021 hPa
Visibilitat: 8000 m
Núvols disperses a una alçada de 3300 ft

METAR: GMMW 250900Z VRB02KT 8000 SCT033 25/19 Q1021 NOSIG

Hora: 11:04 (10:04 UTC)

Pronòstic

L'informe es va fer fa 5 hores i 4 minuts, a les 05:00 UTC
Pronòstic vàlid del 25 a les 06 UTC al 26 a les 12 UTC
Vent 2 kt amb direcció variable
Visibilitat: 6000 m
Escasses núvols a una alçada de 500 ft

TAF: GMMW 250500Z 2506/2612 VRB02KT 6000 FEW005

Observacions i pronòstics meteorològics de més de 4000 aeroports (METAR i TAF).

Les estacions disponibles són els punts grocs i vermells al mapa.

Posi el ratolí al punt desitjat per veure el nom de l'estació.

Feu clic per veure les observacions i els pronòstics meteorològics.

Per canviar el mapa: feu clic els botons verds amb una creu de color negre per apropar; al botó verd amb un guió per allunyar la imatge; o en les fletxes verdes per a mapes adjacents.


METAR-TAF: